sensor_id;sensor_type;location;lat;lon;timestamp;temperature;humidity
50067;DHT22;35952;52.524;13.340;2023-05-07T00:02:12;9.80;99.90
50067;DHT22;35952;52.524;13.340;2023-05-07T00:04:38;9.80;99.90
50067;DHT22;35952;52.524;13.340;2023-05-07T00:07:04;9.80;99.90
50067;DHT22;35952;52.524;13.340;2023-05-07T00:09:29;9.70;99.90
50067;DHT22;35952;52.524;13.340;2023-05-07T00:11:55;9.70;99.90
50067;DHT22;35952;52.524;13.340;2023-05-07T00:14:20;9.60;99.90
50067;DHT22;35952;52.524;13.340;2023-05-07T00:16:46;9.70;99.90
50067;DHT22;35952;52.524;13.340;2023-05-07T00:19:12;9.80;99.90
50067;DHT22;35952;52.524;13.340;2023-05-07T00:21:37;9.80;99.90
50067;DHT22;35952;52.524;13.340;2023-05-07T00:24:03;9.80;99.90
50067;DHT22;35952;52.524;13.340;2023-05-07T00:26:29;9.80;99.90
50067;DHT22;35952;52.524;13.340;2023-05-07T00:28:54;9.90;99.90
50067;DHT22;35952;52.524;13.340;2023-05-07T00:31:20;10.00;99.90
50067;DHT22;35952;52.524;13.340;2023-05-07T00:33:45;9.80;99.90
50067;DHT22;35952;52.524;13.340;2023-05-07T00:36:11;9.70;99.90
50067;DHT22;35952;52.524;13.340;2023-05-07T00:38:37;9.70;99.90
50067;DHT22;35952;52.524;13.340;2023-05-07T00:41:05;9.70;99.90
50067;DHT22;35952;52.524;13.340;2023-05-07T00:43:31;9.80;99.90
50067;DHT22;35952;52.524;13.340;2023-05-07T00:45:57;9.80;99.90
50067;DHT22;35952;52.524;13.340;2023-05-07T00:48:23;9.80;99.90
50067;DHT22;35952;52.524;13.340;2023-05-07T00:50:49;9.90;99.90
50067;DHT22;35952;52.524;13.340;2023-05-07T00:53:15;9.80;99.90
50067;DHT22;35952;52.524;13.340;2023-05-07T00:55:41;9.90;99.90
50067;DHT22;35952;52.524;13.340;2023-05-07T00:58:07;9.70;99.90
50067;DHT22;35952;52.524;13.340;2023-05-07T01:00:32;9.80;99.90
50067;DHT22;35952;52.524;13.340;2023-05-07T01:02:58;9.90;99.90
50067;DHT22;35952;52.524;13.340;2023-05-07T01:05:24;9.90;99.90
50067;DHT22;35952;52.524;13.340;2023-05-07T01:07:52;9.80;99.90
50067;DHT22;35952;52.524;13.340;2023-05-07T01:10:18;9.70;99.90
50067;DHT22;35952;52.524;13.340;2023-05-07T01:12:45;9.80;99.90
50067;DHT22;35952;52.524;13.340;2023-05-07T01:15:12;9.70;99.90
50067;DHT22;35952;52.524;13.340;2023-05-07T01:17:41;9.60;99.90
50067;DHT22;35952;52.524;13.340;2023-05-07T01:20:07;9.60;99.90
50067;DHT22;35952;52.524;13.340;2023-05-07T01:22:34;9.70;99.90
50067;DHT22;35952;52.524;13.340;2023-05-07T01:25:00;9.70;99.90
50067;DHT22;35952;52.524;13.340;2023-05-07T01:27:27;9.70;99.90
50067;DHT22;35952;52.524;13.340;2023-05-07T01:29:52;9.70;99.90
50067;DHT22;35952;52.524;13.340;2023-05-07T01:32:23;9.70;99.90
50067;DHT22;35952;52.524;13.340;2023-05-07T01:34:52;9.70;99.90
50067;DHT22;35952;52.524;13.340;2023-05-07T01:37:21;9.70;99.90
50067;DHT22;35952;52.524;13.340;2023-05-07T01:39:47;9.70;99.90
50067;DHT22;35952;52.524;13.340;2023-05-07T01:42:13;9.70;99.90
50067;DHT22;35952;52.524;13.340;2023-05-07T01:44:39;9.60;99.90
50067;DHT22;35952;52.524;13.340;2023-05-07T01:47:05;9.60;99.90
50067;DHT22;35952;52.524;13.340;2023-05-07T01:49:31;9.60;99.90
50067;DHT22;35952;52.524;13.340;2023-05-07T01:51:57;9.70;99.90
50067;DHT22;35952;52.524;13.340;2023-05-07T01:54:26;9.80;99.90
50067;DHT22;35952;52.524;13.340;2023-05-07T01:56:56;9.80;99.90
50067;DHT22;35952;52.524;13.340;2023-05-07T01:59:22;9.80;99.90
50067;DHT22;35952;52.524;13.340;2023-05-07T02:01:48;9.80;99.90
50067;DHT22;35952;52.524;13.340;2023-05-07T02:04:13;9.80;99.90
50067;DHT22;35952;52.524;13.340;2023-05-07T02:06:39;9.80;99.90
50067;DHT22;35952;52.524;13.340;2023-05-07T02:09:04;9.70;99.90
50067;DHT22;35952;52.524;13.340;2023-05-07T02:11:30;9.80;99.90
50067;DHT22;35952;52.524;13.340;2023-05-07T02:13:55;9.70;99.90
50067;DHT22;35952;52.524;13.340;2023-05-07T02:16:21;9.60;99.90
50067;DHT22;35952;52.524;13.340;2023-05-07T02:18:48;9.70;99.90
50067;DHT22;35952;52.524;13.340;2023-05-07T02:21:14;9.70;99.90
50067;DHT22;35952;52.524;13.340;2023-05-07T02:23:40;9.70;99.90
50067;DHT22;35952;52.524;13.340;2023-05-07T02:26:05;9.70;99.90
50067;DHT22;35952;52.524;13.340;2023-05-07T02:28:31;9.70;99.90
50067;DHT22;35952;52.524;13.340;2023-05-07T02:30:57;9.70;99.90
50067;DHT22;35952;52.524;13.340;2023-05-07T02:33:23;9.60;99.90
50067;DHT22;35952;52.524;13.340;2023-05-07T02:35:50;9.60;99.90
50067;DHT22;35952;52.524;13.340;2023-05-07T02:38:17;9.60;99.90
50067;DHT22;35952;52.524;13.340;2023-05-07T02:40:42;9.70;99.90
50067;DHT22;35952;52.524;13.340;2023-05-07T02:43:08;9.60;99.90
50067;DHT22;35952;52.524;13.340;2023-05-07T02:45:34;9.70;99.90
50067;DHT22;35952;52.524;13.340;2023-05-07T02:47:59;9.70;99.90
50067;DHT22;35952;52.524;13.340;2023-05-07T02:50:25;9.60;99.90
50067;DHT22;35952;52.524;13.340;2023-05-07T02:52:51;9.60;99.90
50067;DHT22;35952;52.524;13.340;2023-05-07T02:55:17;9.60;99.90
50067;DHT22;35952;52.524;13.340;2023-05-07T02:57:43;9.60;99.90
50067;DHT22;35952;52.524;13.340;2023-05-07T03:00:16;9.70;99.90
50067;DHT22;35952;52.524;13.340;2023-05-07T03:02:43;9.70;99.90
50067;DHT22;35952;52.524;13.340;2023-05-07T03:05:08;9.60;99.90
50067;DHT22;35952;52.524;13.340;2023-05-07T03:07:35;9.60;99.90
50067;DHT22;35952;52.524;13.340;2023-05-07T03:10:01;9.50;99.90
50067;DHT22;35952;52.524;13.340;2023-05-07T03:12:26;9.70;99.90
50067;DHT22;35952;52.524;13.340;2023-05-07T03:14:52;9.70;99.90
50067;DHT22;35952;52.524;13.340;2023-05-07T03:17:17;9.60;99.90
50067;DHT22;35952;52.524;13.340;2023-05-07T03:19:43;9.60;99.90
50067;DHT22;35952;52.524;13.340;2023-05-07T03:22:08;9.70;99.90
50067;DHT22;35952;52.524;13.340;2023-05-07T03:24:34;9.70;99.90
50067;DHT22;35952;52.524;13.340;2023-05-07T03:26:59;9.70;99.90
50067;DHT22;35952;52.524;13.340;2023-05-07T03:29:26;9.60;99.90
50067;DHT22;35952;52.524;13.340;2023-05-07T03:31:52;9.60;99.90
50067;DHT22;35952;52.524;13.340;2023-05-07T03:34:17;9.70;99.90
50067;DHT22;35952;52.524;13.340;2023-05-07T03:36:49;9.60;99.90
50067;DHT22;35952;52.524;13.340;2023-05-07T03:39:15;9.60;99.90
50067;DHT22;35952;52.524;13.340;2023-05-07T03:41:41;9.70;99.90
50067;DHT22;35952;52.524;13.340;2023-05-07T03:44:06;9.70;99.90
50067;DHT22;35952;52.524;13.340;2023-05-07T03:46:33;9.70;99.90
50067;DHT22;35952;52.524;13.340;2023-05-07T03:48:59;9.70;99.90
50067;DHT22;35952;52.524;13.340;2023-05-07T03:51:24;9.70;99.90
50067;DHT22;35952;52.524;13.340;2023-05-07T03:53:51;9.70;99.90
50067;DHT22;35952;52.524;13.340;2023-05-07T03:56:18;9.70;99.90
50067;DHT22;35952;52.524;13.340;2023-05-07T03:58:44;9.70;99.90
50067;DHT22;35952;52.524;13.340;2023-05-07T04:01:10;9.70;99.90
50067;DHT22;35952;52.524;13.340;2023-05-07T04:03:35;9.70;99.90
50067;DHT22;35952;52.524;13.340;2023-05-07T04:06:01;9.80;99.90
50067;DHT22;35952;52.524;13.340;2023-05-07T04:08:26;9.80;99.90
50067;DHT22;35952;52.524;13.340;2023-05-07T04:10:58;9.80;99.90
50067;DHT22;35952;52.524;13.340;2023-05-07T04:13:24;9.70;99.90
50067;DHT22;35952;52.524;13.340;2023-05-07T04:15:54;9.80;99.90
50067;DHT22;35952;52.524;13.340;2023-05-07T04:18:20;9.70;99.90
50067;DHT22;35952;52.524;13.340;2023-05-07T04:20:47;9.70;99.90
50067;DHT22;35952;52.524;13.340;2023-05-07T04:23:12;9.70;99.90
50067;DHT22;35952;52.524;13.340;2023-05-07T04:25:38;9.80;99.90
50067;DHT22;35952;52.524;13.340;2023-05-07T04:28:04;9.80;99.90
50067;DHT22;35952;52.524;13.340;2023-05-07T04:30:29;9.70;99.90
50067;DHT22;35952;52.524;13.340;2023-05-07T04:32:54;9.70;99.90
50067;DHT22;35952;52.524;13.340;2023-05-07T04:35:21;9.80;99.90
50067;DHT22;35952;52.524;13.340;2023-05-07T04:37:47;9.80;99.90
50067;DHT22;35952;52.524;13.340;2023-05-07T04:40:13;9.80;99.90
50067;DHT22;35952;52.524;13.340;2023-05-07T04:42:38;9.80;99.90
50067;DHT22;35952;52.524;13.340;2023-05-07T04:45:04;9.80;99.90
50067;DHT22;35952;52.524;13.340;2023-05-07T04:47:30;9.90;99.90
50067;DHT22;35952;52.524;13.340;2023-05-07T04:49:55;9.90;99.90
50067;DHT22;35952;52.524;13.340;2023-05-07T04:52:21;10.00;99.90
50067;DHT22;35952;52.524;13.340;2023-05-07T04:54:46;10.00;99.90
50067;DHT22;35952;52.524;13.340;2023-05-07T04:57:12;9.90;99.90
50067;DHT22;35952;52.524;13.340;2023-05-07T04:59:37;10.00;99.90
50067;DHT22;35952;52.524;13.340;2023-05-07T05:02:03;10.10;99.90
50067;DHT22;35952;52.524;13.340;2023-05-07T05:04:29;10.10;99.90
50067;DHT22;35952;52.524;13.340;2023-05-07T05:06:55;10.10;99.90
50067;DHT22;35952;52.524;13.340;2023-05-07T05:09:21;10.10;99.90
50067;DHT22;35952;52.524;13.340;2023-05-07T05:11:46;10.00;99.90
50067;DHT22;35952;52.524;13.340;2023-05-07T05:14:12;10.10;99.90
50067;DHT22;35952;52.524;13.340;2023-05-07T05:16:37;10.10;99.90
50067;DHT22;35952;52.524;13.340;2023-05-07T05:19:03;10.10;99.90
50067;DHT22;35952;52.524;13.340;2023-05-07T05:21:28;10.10;99.90
50067;DHT22;35952;52.524;13.340;2023-05-07T05:23:54;10.30;99.90
50067;DHT22;35952;52.524;13.340;2023-05-07T05:26:19;10.30;99.90
50067;DHT22;35952;52.524;13.340;2023-05-07T05:28:46;10.50;99.90
50067;DHT22;35952;52.524;13.340;2023-05-07T05:31:12;10.50;99.90
50067;DHT22;35952;52.524;13.340;2023-05-07T05:33:37;10.50;99.90
50067;DHT22;35952;52.524;13.340;2023-05-07T05:36:03;10.60;99.90
50067;DHT22;35952;52.524;13.340;2023-05-07T05:38:29;10.70;99.90
50067;DHT22;35952;52.524;13.340;2023-05-07T05:40:54;10.60;99.90
50067;DHT22;35952;52.524;13.340;2023-05-07T05:43:20;10.50;99.90
50067;DHT22;35952;52.524;13.340;2023-05-07T05:45:45;10.50;99.90
50067;DHT22;35952;52.524;13.340;2023-05-07T05:48:11;10.30;99.90
50067;DHT22;35952;52.524;13.340;2023-05-07T05:50:37;10.30;99.90
50067;DHT22;35952;52.524;13.340;2023-05-07T05:53:02;10.40;99.90
50067;DHT22;35952;52.524;13.340;2023-05-07T05:55:28;10.40;99.90
50067;DHT22;35952;52.524;13.340;2023-05-07T05:57:53;10.50;99.90
50067;DHT22;35952;52.524;13.340;2023-05-07T06:00:19;10.60;99.90
50067;DHT22;35952;52.524;13.340;2023-05-07T06:02:47;10.90;99.90
50067;DHT22;35952;52.524;13.340;2023-05-07T06:05:13;11.90;99.90
50067;DHT22;35952;52.524;13.340;2023-05-07T06:07:38;13.20;99.90
50067;DHT22;35952;52.524;13.340;2023-05-07T06:10:04;13.70;99.90
50067;DHT22;35952;52.524;13.340;2023-05-07T06:12:30;14.10;99.90
50067;DHT22;35952;52.524;13.340;2023-05-07T06:14:56;14.90;99.90
50067;DHT22;35952;52.524;13.340;2023-05-07T06:17:21;15.20;99.90
50067;DHT22;35952;52.524;13.340;2023-05-07T06:19:46;15.90;99.90
50067;DHT22;35952;52.524;13.340;2023-05-07T06:22:12;16.50;99.90
50067;DHT22;35952;52.524;13.340;2023-05-07T06:24:38;16.50;99.90
50067;DHT22;35952;52.524;13.340;2023-05-07T06:27:03;16.30;99.90
50067;DHT22;35952;52.524;13.340;2023-05-07T06:29:29;16.50;99.90
50067;DHT22;35952;52.524;13.340;2023-05-07T06:31:56;16.10;99.90
50067;DHT22;35952;52.524;13.340;2023-05-07T06:34:30;15.40;99.90
50067;DHT22;35952;52.524;13.340;2023-05-07T06:36:56;14.80;99.90
50067;DHT22;35952;52.524;13.340;2023-05-07T06:39:21;13.70;99.90
50067;DHT22;35952;52.524;13.340;2023-05-07T06:41:47;13.30;99.90
50067;DHT22;35952;52.524;13.340;2023-05-07T06:44:12;13.00;99.90
50067;DHT22;35952;52.524;13.340;2023-05-07T06:46:38;12.60;99.90
50067;DHT22;35952;52.524;13.340;2023-05-07T06:49:03;12.80;99.90
50067;DHT22;35952;52.524;13.340;2023-05-07T06:51:29;13.00;99.90
50067;DHT22;35952;52.524;13.340;2023-05-07T06:53:55;13.20;99.90
50067;DHT22;35952;52.524;13.340;2023-05-07T06:56:20;13.00;99.90
50067;DHT22;35952;52.524;13.340;2023-05-07T06:58:46;12.90;99.90
50067;DHT22;35952;52.524;13.340;2023-05-07T07:01:11;12.10;99.90
50067;DHT22;35952;52.524;13.340;2023-05-07T07:03:37;12.00;99.90
50067;DHT22;35952;52.524;13.340;2023-05-07T07:06:03;12.50;99.90
50067;DHT22;35952;52.524;13.340;2023-05-07T07:08:28;13.00;99.90
50067;DHT22;35952;52.524;13.340;2023-05-07T07:10:54;12.80;99.90
50067;DHT22;35952;52.524;13.340;2023-05-07T07:13:19;12.80;99.90
50067;DHT22;35952;52.524;13.340;2023-05-07T07:15:45;13.00;99.90
50067;DHT22;35952;52.524;13.340;2023-05-07T07:18:10;13.20;99.90
50067;DHT22;35952;52.524;13.340;2023-05-07T07:20:36;13.50;99.90
50067;DHT22;35952;52.524;13.340;2023-05-07T07:23:01;15.30;99.90
50067;DHT22;35952;52.524;13.340;2023-05-07T07:25:27;15.90;99.90
50067;DHT22;35952;52.524;13.340;2023-05-07T07:27:52;17.20;99.90
50067;DHT22;35952;52.524;13.340;2023-05-07T07:30:18;17.80;99.90
50067;DHT22;35952;52.524;13.340;2023-05-07T07:32:43;18.40;95.00
50067;DHT22;35952;52.524;13.340;2023-05-07T07:35:09;18.80;91.90
50067;DHT22;35952;52.524;13.340;2023-05-07T07:37:35;17.70;91.10
50067;DHT22;35952;52.524;13.340;2023-05-07T07:40:00;18.60;92.20
50067;DHT22;35952;52.524;13.340;2023-05-07T07:42:26;20.00;84.90
50067;DHT22;35952;52.524;13.340;2023-05-07T07:44:52;21.10;73.50
50067;DHT22;35952;52.524;13.340;2023-05-07T07:47:17;21.20;70.90
50067;DHT22;35952;52.524;13.340;2023-05-07T07:49:43;21.20;66.20
50067;DHT22;35952;52.524;13.340;2023-05-07T07:52:08;20.50;67.00
50067;DHT22;35952;52.524;13.340;2023-05-07T07:54:34;19.70;71.80
50067;DHT22;35952;52.524;13.340;2023-05-07T07:56:59;20.50;71.60
50067;DHT22;35952;52.524;13.340;2023-05-07T07:59:26;21.00;69.90
50067;DHT22;35952;52.524;13.340;2023-05-07T08:01:52;21.90;62.70
50067;DHT22;35952;52.524;13.340;2023-05-07T08:04:21;21.30;62.50
50067;DHT22;35952;52.524;13.340;2023-05-07T08:06:46;21.90;61.40
50067;DHT22;35952;52.524;13.340;2023-05-07T08:09:12;22.00;59.60
50067;DHT22;35952;52.524;13.340;2023-05-07T08:11:38;22.40;59.10
50067;DHT22;35952;52.524;13.340;2023-05-07T08:14:04;23.00;58.50
50067;DHT22;35952;52.524;13.340;2023-05-07T08:16:30;22.40;55.80
50067;DHT22;35952;52.524;13.340;2023-05-07T08:18:55;22.40;59.70
50067;DHT22;35952;52.524;13.340;2023-05-07T08:21:21;21.90;58.00
50067;DHT22;35952;52.524;13.340;2023-05-07T08:23:47;21.50;57.10
50067;DHT22;35952;52.524;13.340;2023-05-07T08:26:12;21.50;59.60
50067;DHT22;35952;52.524;13.340;2023-05-07T08:28:41;21.40;58.00
50067;DHT22;35952;52.524;13.340;2023-05-07T08:31:06;21.50;59.20
50067;DHT22;35952;52.524;13.340;2023-05-07T08:33:32;20.80;57.90
50067;DHT22;35952;52.524;13.340;2023-05-07T08:35:57;21.40;58.40
50067;DHT22;35952;52.524;13.340;2023-05-07T08:38:23;21.80;57.30
50067;DHT22;35952;52.524;13.340;2023-05-07T08:40:49;22.20;55.90
50067;DHT22;35952;52.524;13.340;2023-05-07T08:43:14;23.00;56.90
50067;DHT22;35952;52.524;13.340;2023-05-07T08:45:41;22.30;54.80
50067;DHT22;35952;52.524;13.340;2023-05-07T08:48:17;21.90;58.30
50067;DHT22;35952;52.524;13.340;2023-05-07T08:50:43;22.10;55.20
50067;DHT22;35952;52.524;13.340;2023-05-07T08:53:09;21.20;57.70
50067;DHT22;35952;52.524;13.340;2023-05-07T08:55:34;21.40;57.50
50067;DHT22;35952;52.524;13.340;2023-05-07T08:58:00;19.90;57.80
50067;DHT22;35952;52.524;13.340;2023-05-07T09:00:26;19.10;61.10
50067;DHT22;35952;52.524;13.340;2023-05-07T09:02:53;19.30;61.00
50067;DHT22;35952;52.524;13.340;2023-05-07T09:05:19;20.90;59.00
50067;DHT22;35952;52.524;13.340;2023-05-07T09:07:45;21.70;59.80
50067;DHT22;35952;52.524;13.340;2023-05-07T09:10:11;21.60;56.60
50067;DHT22;35952;52.524;13.340;2023-05-07T09:12:37;23.10;55.90
50067;DHT22;35952;52.524;13.340;2023-05-07T09:15:04;23.50;52.60
50067;DHT22;35952;52.524;13.340;2023-05-07T09:17:31;25.20;51.20
50067;DHT22;35952;52.524;13.340;2023-05-07T09:19:56;25.40;50.40
50067;DHT22;35952;52.524;13.340;2023-05-07T09:22:22;25.60;49.90
50067;DHT22;35952;52.524;13.340;2023-05-07T09:24:51;24.50;48.30
50067;DHT22;35952;52.524;13.340;2023-05-07T09:27:17;23.20;49.90
50067;DHT22;35952;52.524;13.340;2023-05-07T09:29:44;23.50;51.10
50067;DHT22;35952;52.524;13.340;2023-05-07T09:32:10;22.50;51.30
50067;DHT22;35952;52.524;13.340;2023-05-07T09:34:36;22.80;53.10
50067;DHT22;35952;52.524;13.340;2023-05-07T09:37:03;21.90;52.30
50067;DHT22;35952;52.524;13.340;2023-05-07T09:39:42;23.00;53.00
50067;DHT22;35952;52.524;13.340;2023-05-07T09:42:08;24.40;52.00
50067;DHT22;35952;52.524;13.340;2023-05-07T09:44:34;24.80;50.80
50067;DHT22;35952;52.524;13.340;2023-05-07T09:47:00;25.50;48.10
50067;DHT22;35952;52.524;13.340;2023-05-07T09:49:30;24.70;48.20
50067;DHT22;35952;52.524;13.340;2023-05-07T09:51:56;25.20;48.60
50067;DHT22;35952;52.524;13.340;2023-05-07T09:54:24;25.40;49.50
50067;DHT22;35952;52.524;13.340;2023-05-07T09:56:52;24.50;48.10
50067;DHT22;35952;52.524;13.340;2023-05-07T09:59:18;24.30;48.70
50067;DHT22;35952;52.524;13.340;2023-05-07T10:01:45;24.30;48.30
50067;DHT22;35952;52.524;13.340;2023-05-07T10:04:11;23.70;48.90
50067;DHT22;35952;52.524;13.340;2023-05-07T10:06:37;22.70;50.40
50067;DHT22;35952;52.524;13.340;2023-05-07T10:09:04;21.90;50.80
50067;DHT22;35952;52.524;13.340;2023-05-07T10:11:34;20.30;54.20
50067;DHT22;35952;52.524;13.340;2023-05-07T10:14:01;20.00;55.00
50067;DHT22;35952;52.524;13.340;2023-05-07T10:16:32;21.30;55.40
50067;DHT22;35952;52.524;13.340;2023-05-07T10:18:58;21.00;54.00
50067;DHT22;35952;52.524;13.340;2023-05-07T10:21:26;21.70;53.90
50067;DHT22;35952;52.524;13.340;2023-05-07T10:24:09;22.60;53.70
50067;DHT22;35952;52.524;13.340;2023-05-07T10:26:42;22.80;51.00
50067;DHT22;35952;52.524;13.340;2023-05-07T10:29:20;22.70;53.80
50067;DHT22;35952;52.524;13.340;2023-05-07T10:34:22;21.60;51.70
50067;DHT22;35952;52.524;13.340;2023-05-07T10:36:49;22.10;53.30
50067;DHT22;35952;52.524;13.340;2023-05-07T10:39:17;21.80;51.10
50067;DHT22;35952;52.524;13.340;2023-05-07T10:41:42;20.90;52.90
50067;DHT22;35952;52.524;13.340;2023-05-07T10:44:08;21.30;53.90
50067;DHT22;35952;52.524;13.340;2023-05-07T10:46:34;21.70;54.10
50067;DHT22;35952;52.524;13.340;2023-05-07T10:51:26;22.40;52.20
50067;DHT22;35952;52.524;13.340;2023-05-07T10:54:18;22.90;50.60
50067;DHT22;35952;52.524;13.340;2023-05-07T10:56:53;22.20;51.50
50067;DHT22;35952;52.524;13.340;2023-05-07T11:02:02;20.90;52.90
50067;DHT22;35952;52.524;13.340;2023-05-07T11:04:29;20.40;54.20
50067;DHT22;35952;52.524;13.340;2023-05-07T11:15:13;22.60;51.40
50067;DHT22;35952;52.524;13.340;2023-05-07T11:17:57;23.40;49.40
50067;DHT22;35952;52.524;13.340;2023-05-07T11:20:55;22.20;50.10
50067;DHT22;35952;52.524;13.340;2023-05-07T11:28:39;23.10;49.10
50067;DHT22;35952;52.524;13.340;2023-05-07T11:31:06;23.30;49.70
50067;DHT22;35952;52.524;13.340;2023-05-07T11:33:37;22.60;48.80
50067;DHT22;35952;52.524;13.340;2023-05-07T11:36:08;21.70;50.40
50067;DHT22;35952;52.524;13.340;2023-05-07T11:38:37;20.70;50.70
50067;DHT22;35952;52.524;13.340;2023-05-07T11:41:03;19.80;52.20
50067;DHT22;35952;52.524;13.340;2023-05-07T11:43:30;19.10;54.50
50067;DHT22;35952;52.524;13.340;2023-05-07T11:46:13;18.80;59.10
50067;DHT22;35952;52.524;13.340;2023-05-07T11:48:39;18.50;56.80
50067;DHT22;35952;52.524;13.340;2023-05-07T11:51:07;19.20;56.70
50067;DHT22;35952;52.524;13.340;2023-05-07T11:53:38;20.00;55.60
50067;DHT22;35952;52.524;13.340;2023-05-07T11:56:16;20.90;55.80
50067;DHT22;35952;52.524;13.340;2023-05-07T11:58:42;22.20;51.90
50067;DHT22;35952;52.524;13.340;2023-05-07T12:01:10;22.00;50.40
50067;DHT22;35952;52.524;13.340;2023-05-07T12:03:36;21.90;51.40
50067;DHT22;35952;52.524;13.340;2023-05-07T12:06:11;21.90;51.10
50067;DHT22;35952;52.524;13.340;2023-05-07T12:08:39;21.80;50.90
50067;DHT22;35952;52.524;13.340;2023-05-07T12:11:09;21.40;50.70
50067;DHT22;35952;52.524;13.340;2023-05-07T12:13:37;20.80;52.30
50067;DHT22;35952;52.524;13.340;2023-05-07T12:16:03;20.30;52.50
50067;DHT22;35952;52.524;13.340;2023-05-07T12:18:29;19.80;53.80
50067;DHT22;35952;52.524;13.340;2023-05-07T12:20:55;19.70;54.20
50067;DHT22;35952;52.524;13.340;2023-05-07T12:23:22;20.80;52.60
50067;DHT22;35952;52.524;13.340;2023-05-07T12:25:48;21.30;51.20
50067;DHT22;35952;52.524;13.340;2023-05-07T12:28:18;22.10;51.90
50067;DHT22;35952;52.524;13.340;2023-05-07T12:30:46;23.10;50.10
50067;DHT22;35952;52.524;13.340;2023-05-07T12:33:12;24.40;47.60
50067;DHT22;35952;52.524;13.340;2023-05-07T12:35:41;24.10;47.30
50067;DHT22;35952;52.524;13.340;2023-05-07T12:38:14;24.40;47.00
50067;DHT22;35952;52.524;13.340;2023-05-07T12:40:47;24.10;47.20
50067;DHT22;35952;52.524;13.340;2023-05-07T12:43:24;24.50;45.90
50067;DHT22;35952;52.524;13.340;2023-05-07T12:45:51;23.90;46.10
50067;DHT22;35952;52.524;13.340;2023-05-07T12:48:17;22.90;47.00
50067;DHT22;35952;52.524;13.340;2023-05-07T12:50:44;21.70;49.10
50067;DHT22;35952;52.524;13.340;2023-05-07T12:53:11;21.10;50.20
50067;DHT22;35952;52.524;13.340;2023-05-07T12:55:45;20.50;51.00
50067;DHT22;35952;52.524;13.340;2023-05-07T12:58:21;20.40;51.80
50067;DHT22;35952;52.524;13.340;2023-05-07T13:00:49;20.30;52.10
50067;DHT22;35952;52.524;13.340;2023-05-07T13:03:29;20.50;52.10
50067;DHT22;35952;52.524;13.340;2023-05-07T13:05:58;20.90;51.70
50067;DHT22;35952;52.524;13.340;2023-05-07T13:08:26;20.50;50.50
50067;DHT22;35952;52.524;13.340;2023-05-07T13:10:52;19.90;52.30
50067;DHT22;35952;52.524;13.340;2023-05-07T13:13:19;19.90;53.70
50067;DHT22;35952;52.524;13.340;2023-05-07T13:15:45;20.20;52.60
50067;DHT22;35952;52.524;13.340;2023-05-07T13:18:11;20.40;52.60
50067;DHT22;35952;52.524;13.340;2023-05-07T13:20:36;20.40;51.40
50067;DHT22;35952;52.524;13.340;2023-05-07T13:23:02;20.30;52.50
50067;DHT22;35952;52.524;13.340;2023-05-07T13:25:29;20.60;51.20
50067;DHT22;35952;52.524;13.340;2023-05-07T13:27:57;21.20;49.90
50067;DHT22;35952;52.524;13.340;2023-05-07T13:30:22;21.80;48.70
50067;DHT22;35952;52.524;13.340;2023-05-07T13:32:48;22.60;48.10
50067;DHT22;35952;52.524;13.340;2023-05-07T13:35:14;23.00;46.40
50067;DHT22;35952;52.524;13.340;2023-05-07T13:37:39;22.60;47.10
50067;DHT22;35952;52.524;13.340;2023-05-07T13:40:06;22.00;47.80
50067;DHT22;35952;52.524;13.340;2023-05-07T13:42:32;21.90;49.00
50067;DHT22;35952;52.524;13.340;2023-05-07T13:44:57;22.50;48.50
50067;DHT22;35952;52.524;13.340;2023-05-07T13:47:23;23.70;45.40
50067;DHT22;35952;52.524;13.340;2023-05-07T13:49:48;24.00;45.70
50067;DHT22;35952;52.524;13.340;2023-05-07T13:52:15;24.20;44.70
50067;DHT22;35952;52.524;13.340;2023-05-07T13:54:41;23.40;45.20
50067;DHT22;35952;52.524;13.340;2023-05-07T13:57:07;22.90;47.20
50067;DHT22;35952;52.524;13.340;2023-05-07T13:59:33;23.80;47.30
50067;DHT22;35952;52.524;13.340;2023-05-07T14:01:59;25.20;44.60
50067;DHT22;35952;52.524;13.340;2023-05-07T14:04:24;24.20;45.00
50067;DHT22;35952;52.524;13.340;2023-05-07T14:06:50;23.50;44.80
50067;DHT22;35952;52.524;13.340;2023-05-07T14:09:16;22.10;46.00
50067;DHT22;35952;52.524;13.340;2023-05-07T14:11:42;21.60;48.10
50067;DHT22;35952;52.524;13.340;2023-05-07T14:14:07;21.10;48.40
50067;DHT22;35952;52.524;13.340;2023-05-07T14:16:36;22.20;47.60
50067;DHT22;35952;52.524;13.340;2023-05-07T14:19:02;21.80;48.40
50067;DHT22;35952;52.524;13.340;2023-05-07T14:21:27;22.80;47.20
50067;DHT22;35952;52.524;13.340;2023-05-07T14:23:53;22.70;46.70
50067;DHT22;35952;52.524;13.340;2023-05-07T14:26:18;22.30;46.90
50067;DHT22;35952;52.524;13.340;2023-05-07T14:28:45;21.50;48.10
50067;DHT22;35952;52.524;13.340;2023-05-07T14:31:12;20.80;49.50
50067;DHT22;35952;52.524;13.340;2023-05-07T14:33:37;20.30;50.10
50067;DHT22;35952;52.524;13.340;2023-05-07T14:36:03;19.80;51.20
50067;DHT22;35952;52.524;13.340;2023-05-07T14:38:29;19.70;51.40
50067;DHT22;35952;52.524;13.340;2023-05-07T14:40:58;19.20;51.40
50067;DHT22;35952;52.524;13.340;2023-05-07T14:43:23;18.70;52.50
50067;DHT22;35952;52.524;13.340;2023-05-07T14:45:49;18.50;52.70
50067;DHT22;35952;52.524;13.340;2023-05-07T14:48:15;18.10;53.40
50067;DHT22;35952;52.524;13.340;2023-05-07T14:50:46;18.00;54.00
50067;DHT22;35952;52.524;13.340;2023-05-07T14:53:11;17.90;53.90
50067;DHT22;35952;52.524;13.340;2023-05-07T14:55:37;18.00;53.40
50067;DHT22;35952;52.524;13.340;2023-05-07T14:58:02;18.00;53.10
50067;DHT22;35952;52.524;13.340;2023-05-07T15:00:28;17.90;53.30
50067;DHT22;35952;52.524;13.340;2023-05-07T15:02:56;17.90;52.70
50067;DHT22;35952;52.524;13.340;2023-05-07T15:05:27;17.70;53.80
50067;DHT22;35952;52.524;13.340;2023-05-07T15:07:52;17.50;53.70
50067;DHT22;35952;52.524;13.340;2023-05-07T15:10:18;17.30;54.50
50067;DHT22;35952;52.524;13.340;2023-05-07T15:12:44;17.20;55.90
50067;DHT22;35952;52.524;13.340;2023-05-07T15:15:10;17.10;55.40
50067;DHT22;35952;52.524;13.340;2023-05-07T15:17:36;17.30;55.80
50067;DHT22;35952;52.524;13.340;2023-05-07T15:20:01;17.40;55.30
50067;DHT22;35952;52.524;13.340;2023-05-07T15:22:28;17.50;54.80
50067;DHT22;35952;52.524;13.340;2023-05-07T15:24:55;17.80;55.00
50067;DHT22;35952;52.524;13.340;2023-05-07T15:27:22;17.90;55.50
50067;DHT22;35952;52.524;13.340;2023-05-07T15:29:47;17.90;55.30
50067;DHT22;35952;52.524;13.340;2023-05-07T15:32:13;17.60;55.40
50067;DHT22;35952;52.524;13.340;2023-05-07T15:34:38;17.70;56.50
50067;DHT22;35952;52.524;13.340;2023-05-07T15:37:04;17.70;56.60
50067;DHT22;35952;52.524;13.340;2023-05-07T15:39:30;17.60;56.40